Time;durP1;ratioP1;P1;durP2;ratioP2;P2;SDS_P1;SDS_P2;PMS_P1;PMS_P2;Temp;Humidity;BMP_temperature;BMP_pressure;BME280_temperature;BME280_humidity;BME280_pressure;Samples;Min_cycle;Max_cycle;Signal;HPM_P1;HPM_P2
2021/12/06 07:26:18;;;;;;;;;8.00;8.00;;;;;6.97;82.38;101235.34;4969405;28;46966;-86
2021/12/06 07:28:45;;;;;;;;;8.33;7.67;;;;;6.96;82.48;101239.66;4972508;28;45747;-86
2021/12/06 07:31:14;;;;;;;;;10.33;7.00;;;;;6.92;82.48;101246.41;4971273;28;46065;-87
2021/12/06 07:33:41;;;;;;;;;12.67;9.00;;;;;6.95;82.22;101250.00;4966753;28;45485;-87
2021/12/06 07:36:07;;;;;;;;;15.00;11.00;;;;;6.95;82.59;101250.94;4961984;28;45499;-88
2021/12/06 07:38:37;;;;;;;;;9.33;8.00;;;;;6.89;82.46;101248.78;4959123;28;47277;-86
2021/12/06 07:41:04;;;;;;;;;11.00;8.33;;;;;6.89;82.59;101243.56;4971658;28;45594;-86
2021/12/06 07:43:29;;;;;;;;;8.67;8.00;;;;;6.92;82.54;101246.41;4972502;28;45391;-86
2021/12/06 07:45:55;;;;;;;;;8.33;7.00;;;;;6.96;82.00;101244.00;4969108;28;46411;-86
2021/12/06 07:48:20;;;;;;;;;13.67;10.00;;;;;7.03;82.65;101246.22;4970390;28;47341;-86
2021/12/06 07:50:45;;;;;;;;;10.33;8.67;;;;;7.09;82.63;101245.72;4984517;28;45640;-86
2021/12/06 07:53:11;;;;;;;;;11.67;10.67;;;;;7.15;82.34;101256.59;4955275;28;45479;-87
2021/12/06 07:55:37;;;;;;;;;8.33;7.33;;;;;7.21;82.45;101250.88;4956548;28;45700;-86
2021/12/06 07:58:05;;;;;;;;;7.67;7.67;;;;;7.28;82.39;101247.88;4976073;28;45654;-86
2021/12/06 08:00:32;;;;;;;;;11.33;10.33;;;;;7.33;82.49;101256.94;4979800;28;46086;-86
2021/12/06 08:02:58;;;;;;;;;7.67;7.67;;;;;7.29;82.56;101239.25;4973415;28;45820;-86
2021/12/06 08:05:30;;;;;;;;;8.33;7.33;;;;;7.41;81.89;101249.59;4975147;28;45446;-86
2021/12/06 08:08:06;;;;;;;;;10.33;8.33;;;;;7.46;82.12;101248.19;4970010;28;46278;-86
2021/12/06 08:10:33;;;;;;;;;9.00;8.00;;;;;7.52;81.54;101237.25;4974350;28;45396;-86
2021/12/06 08:12:59;;;;;;;;;9.67;7.33;;;;;7.57;82.49;101230.63;4974083;28;45405;-85
2021/12/06 08:15:24;;;;;;;;;9.67;7.33;;;;;7.62;82.42;101235.25;4956323;28;45609;-86
2021/12/06 08:17:50;;;;;;;;;17.00;12.50;;;;;7.67;82.22;101236.44;4970963;28;46042;-86
2021/12/06 08:20:15;;;;;;;;;15.75;14.50;;;;;7.75;82.54;101252.63;4950734;28;46069;-86
2021/12/06 08:22:41;;;;;;;;;12.00;10.00;;;;;7.86;81.44;101243.75;4963298;28;45454;-84
2021/12/06 08:25:09;;;;;;;;;10.67;8.33;;;;;7.91;82.22;101208.34;4972947;28;45398;-85
2021/12/06 08:27:34;;;;;;;;;12.00;9.67;;;;;8.03;82.38;101197.81;4950209;28;47499;-86
2021/12/06 08:30:00;;;;;;;;;10.00;7.67;;;;;8.12;81.85;101204.38;4968198;28;45491;-85
2021/12/06 08:32:26;;;;;;;;;9.00;9.00;;;;;8.21;82.39;101215.44;4983640;28;49467;-85
2021/12/06 08:34:51;;;;;;;;;10.67;9.00;;;;;8.38;82.04;101228.66;4968397;28;46488;-85
2021/12/06 08:37:17;;;;;;;;;10.33;10.33;;;;;8.54;81.79;101232.22;4975823;28;52460;-94
2021/12/06 08:39:42;;;;;;;;;9.67;8.00;;;;;8.68;81.68;101247.13;4967244;28;45826;-95
2021/12/06 08:42:09;;;;;;;;;11.00;8.33;;;;;8.76;79.99;101230.97;4957338;28;45588;-93
2021/12/06 08:44:35;;;;;;;;;7.00;6.33;;;;;8.79;80.09;101229.44;4958308;28;45556;-96
2021/12/06 08:47:02;;;;;;;;;9.33;8.33;;;;;8.82;80.57;101236.56;4958216;28;46167;-95
2021/12/06 08:49:29;;;;;;;;;10.67;8.67;;;;;8.85;81.36;101225.38;4956725;28;45982;-93
2021/12/06 08:51:56;;;;;;;;;14.00;10.67;;;;;8.88;80.97;101221.25;4957118;28;45466;-94
2021/12/06 08:54:26;;;;;;;;;11.33;9.33;;;;;8.88;80.40;101217.72;4956957;28;45650;-93
2021/12/06 08:56:55;;;;;;;;;11.00;10.67;;;;;8.87;80.54;101215.88;4969032;28;47221;-93
2021/12/06 08:59:20;;;;;;;;;13.67;12.33;;;;;8.89;81.11;101209.06;4970129;28;46167;-93
2021/12/06 09:01:47;;;;;;;;;11.33;11.33;;;;;8.93;80.85;101219.81;4954368;28;45431;-94
2021/12/06 09:04:12;;;;;;;;;9.00;9.00;;;;;8.92;81.19;101206.59;4973416;28;45674;-94
2021/12/06 09:06:45;;;;;;;;;11.33;9.33;;;;;9.02;79.67;101222.03;4971583;28;47252;-95
2021/12/06 09:09:12;;;;;;;;;18.67;12.33;;;;;9.11;81.16;101219.09;4963842;28;45340;-95
2021/12/06 09:11:42;;;;;;;;;11.00;9.67;;;;;9.16;79.43;101220.25;4960116;28;45468;-94
2021/12/06 09:14:08;;;;;;;;;14.00;8.33;;;;;9.25;78.37;101226.84;4984670;28;45417;-94
2021/12/06 09:16:36;;;;;;;;;7.00;6.67;;;;;9.30;80.28;101225.41;4976434;28;46553;-94
2021/12/06 09:19:03;;;;;;;;;11.67;10.33;;;;;9.38;79.86;101231.09;4970218;28;45487;-93
2021/12/06 09:21:28;;;;;;;;;10.33;9.00;;;;;9.32;78.82;101229.03;4977769;28;45674;-93
2021/12/06 09:23:55;;;;;;;;;10.67;8.00;;;;;9.27;79.03;101231.38;4972835;28;45905;-94
2021/12/06 09:26:21;;;;;;;;;11.33;8.67;;;;;9.26;79.76;101223.41;4966288;28;48529;-94
2021/12/06 09:28:47;;;;;;;;;13.00;8.67;;;;;9.23;80.74;101217.97;4982691;28;45849;-94
2021/12/06 09:31:15;;;;;;;;;8.33;7.00;;;;;9.23;78.30;101232.00;4968912;28;45486;-93
2021/12/06 09:33:40;;;;;;;;;9.33;8.33;;;;;9.19;78.53;101229.09;4957361;28;45601;-92
2021/12/06 09:36:07;;;;;;;;;13.00;10.00;;;;;9.15;79.39;101228.91;4965560;28;47039;-93
2021/12/06 09:38:38;;;;;;;;;10.00;9.33;;;;;9.19;79.29;101231.72;4986197;28;45470;-93
2021/12/06 09:41:09;;;;;;;;;11.33;10.00;;;;;9.24;79.78;101232.91;4959708;28;45345;-94
2021/12/06 09:43:38;;;;;;;;;12.00;12.00;;;;;9.26;78.86;101208.59;4973867;28;45482;-87
2021/12/06 09:46:06;;;;;;;;;7.00;7.00;;;;;9.36;80.22;101220.50;4957767;28;47632;-87
2021/12/06 09:48:31;;;;;;;;;12.00;10.33;;;;;9.41;79.63;101222.47;4975621;28;49298;-86
2021/12/06 09:51:06;;;;;;;;;14.00;8.33;;;;;9.47;79.37;101228.09;4973913;28;45402;-87
2021/12/06 09:53:34;;;;;;;;;13.00;12.33;;;;;9.49;78.75;101223.84;4984244;28;45665;-87
2021/12/06 09:56:04;;;;;;;;;9.67;9.33;;;;;9.43;79.53;101211.28;4950402;28;48439;-86
2021/12/06 09:58:30;;;;;;;;;10.00;8.33;;;;;9.52;78.55;101218.78;4968655;28;45540;-86
2021/12/06 10:01:06;;;;;;;;;7.00;7.00;;;;;9.52;78.50;101213.53;4951570;28;45539;-86
2021/12/06 10:03:33;;;;;;;;;11.33;9.00;;;;;9.60;79.65;101230.63;4971047;28;45667;-86
2021/12/06 10:06:02;;;;;;;;;9.00;8.33;;;;;9.65;77.47;101217.75;4970897;28;45833;-87
2021/12/06 10:08:31;;;;;;;;;12.67;12.00;;;;;9.67;78.47;101224.00;4971811;28;45653;-86
2021/12/06 10:10:57;;;;;;;;;10.00;10.00;;;;;9.74;78.81;101222.59;4980401;28;45442;-87
2021/12/06 10:13:22;;;;;;;;;15.00;9.67;;;;;9.81;76.83;101211.66;4973850;28;45374;-86
2021/12/06 10:15:50;;;;;;;;;9.33;9.33;;;;;9.80;77.19;101201.09;4953505;28;47322;-87
2021/12/06 10:18:18;;;;;;;;;10.67;10.67;;;;;9.86;78.57;101197.91;4957745;28;46097;-86
2021/12/06 10:20:44;;;;;;;;;10.33;9.00;;;;;9.90;78.17;101186.75;4962102;28;45952;-86
2021/12/06 10:23:11;;;;;;;;;12.67;10.00;;;;;9.91;73.83;101188.56;4986639;28;45459;-87
2021/12/06 10:25:40;;;;;;;;;11.33;8.33;;;;;9.89;74.64;101191.13;4973725;28;46705;-86
2021/12/06 10:28:07;;;;;;;;;9.67;9.67;;;;;9.90;75.28;101184.13;4961418;28;45759;-87
2021/12/06 10:50:08;;;;;;;;;13.25;12.00;;;;;9.90;77.47;101126.44;5123535;27;45379;-86
2021/12/06 10:52:33;;;;;;;;;14.67;11.67;;;;;10.05;76.48;101134.28;5102030;27;45552;-85
2021/12/06 10:54:59;;;;;;;;;14.00;10.00;;;;;10.12;77.64;101119.75;5103527;27;45520;-86
2021/12/06 10:57:45;;;;;;;;;14.00;11.75;;;;;10.26;75.68;101113.50;5106114;27;45442;-86
2021/12/06 11:00:35;;;;;;;;;10.33;8.00;;;;;10.30;76.55;101114.56;5106918;27;51600;-86
2021/12/06 11:03:01;;;;;;;;;13.67;8.00;;;;;10.26;75.37;101118.75;5099372;27;45533;-89
2021/12/06 11:05:31;;;;;;;;;11.00;8.00;;;;;10.30;74.15;101116.28;5102580;27;45450;-87
2021/12/06 11:08:08;;;;;;;;;11.33;8.00;;;;;10.32;74.23;101120.81;5103685;27;45714;-87
2021/12/06 11:10:50;;;;;;;;;10.00;8.33;;;;;10.31;73.49;101108.50;5095559;27;46136;-88
2021/12/06 11:13:23;;;;;;;;;10.00;8.33;;;;;10.28;74.84;101103.09;5103474;27;45606;-86
2021/12/06 11:16:06;;;;;;;;;10.00;9.67;;;;;10.29;76.50;101115.38;5101994;27;45431;-88
2021/12/06 11:18:46;;;;;;;;;13.67;11.33;;;;;10.30;77.34;101114.56;5114336;27;45631;-87
2021/12/06 11:21:19;;;;;;;;;12.00;10.00;;;;;10.35;76.85;101105.22;5098783;27;49436;-89
2021/12/06 11:24:08;;;;;;;;;11.00;9.33;;;;;10.54;76.62;101107.94;5097874;27;46016;-88
2021/12/06 11:26:38;;;;;;;;;12.00;8.00;;;;;10.63;75.10;101102.25;5098925;27;45357;-89
2021/12/06 11:29:16;;;;;;;;;13.33;9.00;;;;;10.80;72.79;101108.34;5087102;27;45646;-88
2021/12/06 11:31:49;;;;;;;;;9.00;9.00;;;;;10.87;73.42;101099.06;5104145;27;45498;-86
2021/12/06 11:34:15;;;;;;;;;7.67;7.67;;;;;10.89;74.39;101081.66;5103654;27;45342;-87
2021/12/06 11:36:42;;;;;;;;;8.00;7.67;;;;;10.89;71.36;101077.28;5102270;27;45364;-87
2021/12/06 11:39:13;;;;;;;;;13.33;9.67;;;;;10.93;73.59;101081.88;5097987;27;45314;-87
2021/12/06 11:41:42;;;;;;;;;11.67;11.67;;;;;10.92;75.28;101071.28;5096923;27;45467;-87
2021/12/06 11:44:16;;;;;;;;;6.33;6.33;;;;;10.97;75.57;101061.00;5092311;27;45529;-86
2021/12/06 11:46:42;;;;;;;;;9.67;8.33;;;;;10.99;72.12;101052.38;5095626;27;45528;-87
2021/12/06 11:49:16;;;;;;;;;8.00;8.00;;;;;11.08;74.86;101051.91;5104755;27;45718;-87
2021/12/06 11:51:41;;;;;;;;;10.67;9.00;;;;;11.13;72.19;101053.03;5086010;27;46007;-90
2021/12/06 11:54:06;;;;;;;;;7.00;7.00;;;;;11.22;73.98;101049.06;5078237;27;45648;-89
2021/12/06 11:56:42;;;;;;;;;8.67;8.67;;;;;11.15;73.63;101040.91;5082668;27;45552;-88
2021/12/06 11:59:08;;;;;;;;;5.33;5.00;;;;;11.31;74.44;101049.50;5091452;27;45526;-90
2021/12/06 12:01:43;;;;;;;;;9.00;9.00;;;;;11.37;73.19;101049.78;5090492;27;45551;-88
2021/12/06 12:04:13;;;;;;;;;9.33;8.33;;;;;11.35;74.15;101033.03;5090785;27;46017;-87
2021/12/06 12:06:44;;;;;;;;;9.00;6.33;;;;;11.47;70.00;101044.94;5089040;27;45813;-88
2021/12/06 12:09:21;;;;;;;;;10.00;8.33;;;;;11.53;74.32;101050.50;5090523;27;50544;-88
2021/12/06 12:11:59;;;;;;;;;7.00;7.00;;;;;11.64;73.98;101052.72;5079350;27;45671;-88
2021/12/06 12:14:30;;;;;;;;;6.33;6.00;;;;;11.63;71.72;101057.06;5086650;27;45445;-88
2021/12/06 12:16:56;;;;;;;;;5.33;4.33;;;;;11.50;73.54;101058.22;5090011;27;45491;-87
2021/12/06 12:19:21;;;;;;;;;8.00;5.33;;;;;11.38;69.13;101051.59;5089403;27;45505;-88
2021/12/06 12:21:47;;;;;;;;;6.33;4.33;;;;;11.36;72.63;101044.47;5078767;27;45505;-89
2021/12/06 12:24:13;;;;;;;;;5.33;5.33;;;;;11.27;74.13;101023.88;5077626;27;45461;-87
2021/12/06 12:26:52;;;;;;;;;10.00;9.00;;;;;11.36;71.71;101039.19;5085954;27;45549;-88
2021/12/06 12:29:24;;;;;;;;;7.33;6.67;;;;;11.40;68.73;101031.53;5086829;27;45557;-87
2021/12/06 12:31:52;;;;;;;;;5.67;5.67;;;;;11.45;71.28;101031.75;5089711;27;58313;-87
2021/12/06 12:34:18;;;;;;;;;7.00;7.00;;;;;11.42;68.51;101028.06;5087232;27;45349;-88
2021/12/06 12:36:44;;;;;;;;;8.67;6.00;;;;;11.47;72.60;101031.78;5086729;27;45601;-87
2021/12/06 12:39:17;;;;;;;;;5.00;5.00;;;;;11.45;73.41;101021.22;5085031;27;46706;-87
2021/12/06 12:41:57;;;;;;;;;5.00;5.00;;;;;11.43;70.70;101007.13;5079426;27;46576;-87
2021/12/06 12:44:24;;;;;;;;;8.00;6.33;;;;;11.42;71.67;100983.38;5086674;27;45466;-87
2021/12/06 12:46:53;;;;;;;;;8.67;6.33;;;;;11.44;72.38;100974.72;5085678;27;45305;-88
2021/12/06 12:49:24;;;;;;;;;4.33;4.33;;;;;11.57;71.39;100975.31;5100791;27;45532;-88
2021/12/06 12:51:50;;;;;;;;;8.00;5.00;;;;;11.59;71.71;100978.91;5083697;27;55932;-87
2021/12/06 12:54:27;;;;;;;;;7.00;4.67;;;;;11.61;71.38;100978.13;5085005;27;51617;-87
2021/12/06 12:57:00;;;;;;;;;8.67;7.67;;;;;11.69;71.83;100969.69;5083092;27;45670;-87
2021/12/06 12:59:36;;;;;;;;;5.33;5.33;;;;;11.75;72.48;100966.44;5086204;27;45297;-88
2021/12/06 13:02:33;;;;;;;;;10.00;4.00;;;;;11.76;68.66;100958.59;5082054;27;48144;-87
2021/12/06 13:04:58;;;;;;;;;4.00;3.67;;;;;11.65;68.36;100949.38;5078534;27;45614;-88
2021/12/06 13:07:30;;;;;;;;;4.00;4.00;;;;;11.44;67.50;100937.06;5086383;27;45455;-87
2021/12/06 13:09:57;;;;;;;;;5.00;4.33;;;;;11.24;65.75;100924.78;5083072;27;45880;-87
2021/12/06 13:12:24;;;;;;;;;6.33;3.67;;;;;11.12;70.35;100914.63;5089614;27;46377;-87
2021/12/06 13:14:55;;;;;;;;;8.33;4.00;;;;;11.05;70.32;100908.22;5085572;27;45557;-88
2021/12/06 13:17:27;;;;;;;;;6.00;4.00;;;;;11.13;70.86;100908.53;5081392;27;45703;-87
2021/12/06 13:20:09;;;;;;;;;4.00;4.00;;;;;11.24;68.88;100897.59;5077662;27;45473;-86
2021/12/06 13:22:47;;;;;;;;;5.00;5.00;;;;;11.24;70.99;100887.09;5080930;27;46005;-88
2021/12/06 13:25:22;;;;;;;;;3.67;3.67;;;;;11.13;66.69;100884.00;5103100;27;45517;-88
2021/12/06 13:27:53;;;;;;;;;8.00;8.00;;;;;10.98;69.68;100877.22;5075471;27;45574;-87
2021/12/06 13:30:31;;;;;;;;;4.00;3.00;;;;;10.88;70.43;100869.72;5081291;27;45438;-87
2021/12/06 13:33:01;;;;;;;;;7.00;4.33;;;;;10.80;68.39;100872.00;5085361;27;48257;-87
2021/12/06 13:35:32;;;;;;;;;5.00;4.00;;;;;10.73;70.67;100861.22;5079565;27;45852;-88
2021/12/06 13:38:16;;;;;;;;;8.67;5.00;;;;;10.64;69.62;100849.41;5084275;27;45481;-87
2021/12/06 13:41:02;;;;;;;;;7.00;5.00;;;;;10.49;70.99;100832.97;5085973;27;45496;-87
2021/12/06 13:44:09;;;;;;;;;4.33;4.00;;;;;10.41;66.76;100833.44;5078550;27;46317;-87
2021/12/06 13:46:38;;;;;;;;;5.00;4.00;;;;;10.35;71.17;100834.94;5097079;27;45347;-87
2021/12/06 13:49:03;;;;;;;;;2.33;2.33;;;;;10.34;71.51;100847.97;5086778;27;45433;-87
2021/12/06 13:51:40;;;;;;;;;3.67;2.67;;;;;10.28;67.35;100832.88;5085506;27;45830;-85
2021/12/06 13:54:36;;;;;;;;;3.00;3.00;;;;;10.30;68.75;100839.06;5081230;27;47032;-85
2021/12/06 13:57:13;;;;;;;;;3.00;3.00;;;;;10.32;69.59;100844.38;5077581;27;45856;-86
2021/12/06 13:59:46;;;;;;;;;6.00;2.00;;;;;10.28;67.68;100830.25;5086087;27;45480;-85
2021/12/06 14:02:24;;;;;;;;;7.67;4.00;;;;;10.30;67.39;100838.16;5074461;27;45780;-85
2021/12/06 14:04:51;;;;;;;;;4.00;3.00;;;;;10.20;70.79;100823.72;5085535;27;47134;-86
2021/12/06 14:07:25;;;;;;;;;2.00;2.00;;;;;10.16;68.89;100826.19;5086906;27;45502;-86
2021/12/06 14:09:52;;;;;;;;;3.00;3.00;;;;;10.13;69.83;100838.25;5085293;27;45594;-86
2021/12/06 14:12:21;;;;;;;;;2.00;2.00;;;;;10.14;69.83;100845.31;5084440;27;45637;-86
2021/12/06 14:14:50;;;;;;;;;2.00;1.33;;;;;10.11;70.15;100826.78;5083054;27;45453;-86
2021/12/06 14:17:17;;;;;;;;;2.00;2.00;;;;;9.98;71.59;100833.16;5083698;27;46532;-87
2021/12/06 14:19:45;;;;;;;;;2.00;2.00;;;;;9.93;71.03;100827.69;5075828;27;45562;-86
2021/12/06 14:22:15;;;;;;;;;3.00;3.00;;;;;9.92;70.95;100818.91;5080801;27;45454;-86
2021/12/06 14:24:43;;;;;;;;;2.00;2.00;;;;;9.88;70.87;100801.25;5079279;27;45787;-87
2021/12/06 14:27:09;;;;;;;;;3.00;2.00;;;;;9.82;71.03;100793.97;5087322;27;45497;-87
2021/12/06 14:29:35;;;;;;;;;5.67;3.00;;;;;9.71;67.32;100782.97;5080436;27;45545;-87
2021/12/06 14:32:05;;;;;;;;;4.00;4.00;;;;;9.61;70.67;100765.88;5082025;27;45485;-87
2021/12/06 14:34:34;;;;;;;;;3.00;3.00;;;;;9.60;72.04;100774.56;5086405;27;49086;-87
2021/12/06 14:37:05;;;;;;;;;3.33;3.33;;;;;9.49;71.08;100765.25;5085369;27;45396;-86
2021/12/06 14:39:35;;;;;;;;;6.00;4.00;;;;;9.41;72.44;100762.25;5083275;27;45448;-86
2021/12/06 14:42:07;;;;;;;;;2.00;2.00;;;;;9.33;70.21;100751.38;5079069;27;51439;-87
2021/12/06 14:44:43;;;;;;;;;2.33;2.33;;;;;9.18;71.19;100753.22;5085784;27;46440;-87
2021/12/06 14:47:25;;;;;;;;;3.33;3.33;;;;;9.04;74.82;100763.91;5079090;27;45782;-88
2021/12/06 14:49:52;;;;;;;;;4.33;4.33;;;;;8.92;74.83;100745.81;5084115;27;45438;-88
2021/12/06 14:52:28;;;;;;;;;3.00;3.00;;;;;8.85;73.86;100748.94;5085385;27;45561;-88
2021/12/06 14:58:27;;;;;;;;;3.67;3.67;;;;;8.69;76.08;100722.88;5063029;28;45484;-90
2021/12/06 15:01:00;;;;;;;;;7.00;6.00;;;;;8.62;75.51;100712.91;5067555;28;45777;-88
2021/12/06 15:03:31;;;;;;;;;6.00;4.00;;;;;8.53;73.78;100707.16;5067633;28;45548;-89
2021/12/06 15:05:58;;;;;;;;;4.00;4.00;;;;;8.55;75.66;100715.97;5067059;28;46104;-90
2021/12/06 15:08:36;;;;;;;;;5.33;2.00;;;;;8.50;74.39;100726.19;5063414;28;45572;-88
2021/12/06 15:11:18;;;;;;;;;3.67;2.33;;;;;8.44;74.62;100728.47;5056483;28;45608;-88
2021/12/06 15:13:47;;;;;;;;;2.00;2.00;;;;;8.38;76.25;100724.72;5066706;27;45698;-88
2021/12/06 15:16:15;;;;;;;;;4.67;3.00;;;;;8.33;75.47;100722.66;5059731;28;46169;-88
2021/12/06 15:18:41;;;;;;;;;2.67;2.67;;;;;8.31;76.58;100743.50;5058834;28;45763;-87
2021/12/06 15:21:10;;;;;;;;;3.00;3.00;;;;;8.29;72.76;100729.44;5060290;28;45456;-87
2021/12/06 15:23:48;;;;;;;;;3.00;2.00;;;;;8.23;74.23;100739.56;5067029;28;45510;-87
2021/12/06 15:26:18;;;;;;;;;4.00;4.00;;;;;8.18;73.85;100752.41;5052175;28;46468;-87
2021/12/06 15:28:45;;;;;;;;;2.33;2.33;;;;;8.18;75.59;100755.00;5070315;28;45603;-88
2021/12/06 15:31:12;;;;;;;;;3.67;3.67;;;;;8.05;74.29;100743.88;5072821;27;46079;-90
2021/12/06 15:33:40;;;;;;;;;3.67;1.00;;;;;8.01;75.64;100746.25;5090019;27;45818;-87
2021/12/06 15:36:10;;;;;;;;;2.00;2.00;;;;;7.98;77.07;100752.19;5087929;27;46569;-87
2021/12/06 15:38:42;;;;;;;;;6.00;3.00;;;;;7.94;77.78;100756.34;5092063;27;45502;-88
2021/12/06 15:41:16;;;;;;;;;2.33;2.33;;;;;7.93;78.41;100780.69;5092983;27;45530;-87
2021/12/06 15:43:46;;;;;;;;;6.00;3.00;;;;;7.81;77.29;100756.44;5094283;27;45394;-88
2021/12/06 15:46:13;;;;;;;;;2.00;2.00;;;;;7.80;78.32;100757.28;5094282;27;46812;-88
2021/12/06 15:48:41;;;;;;;;;2.00;2.00;;;;;7.69;77.99;100767.09;5087378;27;46095;-88
2021/12/06 15:51:17;;;;;;;;;2.33;1.67;;;;;7.74;78.52;100788.28;5093867;27;45537;-86
2021/12/06 15:53:46;;;;;;;;;1.00;1.00;;;;;7.70;79.03;100781.97;5091965;27;45450;-86
2021/12/06 15:56:13;;;;;;;;;2.00;1.00;;;;;7.70;77.04;100777.66;5092727;27;46355;-87
2021/12/06 15:58:40;;;;;;;;;2.33;2.00;;;;;7.67;78.52;100772.25;5084300;27;45568;-87
2021/12/06 16:01:08;;;;;;;;;1.00;1.00;;;;;7.62;77.48;100760.63;5087542;27;45386;-86
2021/12/06 16:03:40;;;;;;;;;3.00;3.00;;;;;7.58;77.98;100772.63;5092240;27;45666;-87
2021/12/06 16:06:08;;;;;;;;;1.33;1.33;;;;;7.55;77.85;100771.56;5090560;27;45771;-87
2021/12/06 16:08:37;;;;;;;;;3.00;2.00;;;;;7.45;76.45;100750.09;5093194;27;45560;-87
2021/12/06 16:11:04;;;;;;;;;1.67;1.00;;;;;7.38;75.57;100721.84;5081548;27;45715;-87
2021/12/06 16:13:36;;;;;;;;;2.00;2.00;;;;;7.32;77.73;100684.94;5091806;27;45455;-87
2021/12/06 16:16:05;;;;;;;;;0.00;0.00;;;;;7.25;79.39;100660.16;5090094;27;45474;-87
2021/12/06 16:18:31;;;;;;;;;3.00;2.00;;;;;7.22;78.26;100645.22;5090385;27;45790;-86
2021/12/06 16:21:01;;;;;;;;;2.33;2.33;;;;;7.16;76.64;100639.66;5095860;27;45480;-86
2021/12/06 16:23:38;;;;;;;;;1.00;1.00;;;;;7.12;75.93;100635.97;5093697;27;46053;-86
2021/12/06 16:26:10;;;;;;;;;2.00;1.67;;;;;7.12;76.90;100635.06;5084653;27;45731;-87
2021/12/06 16:28:58;;;;;;;;;2.00;2.00;;;;;7.04;76.62;100627.69;5093208;27;45692;-87
2021/12/06 16:31:27;;;;;;;;;3.00;2.00;;;;;7.04;77.42;100632.91;5089010;27;45697;-86
2021/12/06 16:34:02;;;;;;;;;4.00;3.00;;;;;7.07;78.59;100632.19;5092267;27;49418;-87
2021/12/06 16:36:34;;;;;;;;;3.00;3.00;;;;;7.10;79.06;100623.63;5090825;27;45686;-86
2021/12/06 16:39:09;;;;;;;;;2.00;2.00;;;;;7.13;79.33;100623.81;5091578;27;45596;-87
2021/12/06 16:41:46;;;;;;;;;3.00;2.00;;;;;7.16;78.44;100621.38;5090242;27;45479;-86
2021/12/06 16:44:18;;;;;;;;;3.00;3.00;;;;;7.22;79.40;100628.66;5087210;27;45655;-87
2021/12/06 16:46:51;;;;;;;;;3.67;1.67;;;;;7.26;78.60;100623.72;5092490;27;46187;-87
2021/12/06 16:49:30;;;;;;;;;2.67;2.33;;;;;7.23;78.51;100606.97;5092709;27;45476;-88
2021/12/06 16:52:10;;;;;;;;;4.33;3.00;;;;;7.29;79.00;100615.16;5092873;27;45422;-87
2021/12/06 16:54:36;;;;;;;;;4.33;2.67;;;;;7.30;76.05;100598.66;5091133;27;46591;-87
2021/12/06 16:57:05;;;;;;;;;6.67;5.67;;;;;7.25;77.51;100572.28;5089560;27;46968;-87
2021/12/06 16:59:42;;;;;;;;;5.33;2.67;;;;;7.23;77.52;100573.94;5090736;27;45968;-86
2021/12/06 17:02:10;;;;;;;;;4.50;3.00;;;;;7.28;78.56;100608.13;5090234;27;45343;-86
2021/12/06 17:04:47;;;;;;;;;4.33;4.33;;;;;7.28;78.28;100605.50;5092248;27;45392;-87
2021/12/06 17:07:35;;;;;;;;;3.00;2.00;;;;;7.28;78.02;100609.81;5091568;27;47361;-87
2021/12/06 17:10:23;;;;;;;;;2.00;2.00;;;;;7.26;78.74;100608.06;5091538;27;45414;-87
2021/12/06 17:12:56;;;;;;;;;2.00;2.00;;;;;7.32;74.78;100612.69;5080296;27;45789;-87
2021/12/06 17:15:28;;;;;;;;;3.00;3.00;;;;;7.33;75.63;100605.75;5092357;27;45532;-87
2021/12/06 17:18:03;;;;;;;;;3.67;2.00;;;;;7.29;76.98;100603.81;5090454;27;48372;-87
2021/12/06 17:20:33;;;;;;;;;1.67;1.00;;;;;7.26;77.37;100596.69;5086464;27;45615;-87
2021/12/06 17:23:02;;;;;;;;;2.00;2.00;;;;;7.29;76.58;100615.16;5087258;27;45424;-87
2021/12/06 17:25:32;;;;;;;;;2.00;2.00;;;;;7.32;78.25;100607.47;5083209;27;45864;-85
2021/12/06 17:28:11;;;;;;;;;4.33;2.00;;;;;7.30;77.39;100605.59;5088343;27;45593;-86
2021/12/06 17:30:50;;;;;;;;;2.00;2.00;;;;;7.35;77.51;100612.88;5090038;27;46195;-87
2021/12/06 17:33:22;;;;;;;;;4.67;2.00;;;;;7.34;77.96;100611.09;5089170;27;45549;-88
2021/12/06 17:35:55;;;;;;;;;1.00;1.00;;;;;7.29;75.10;100627.31;5089859;27;45360;-87
2021/12/06 17:38:22;;;;;;;;;2.33;2.33;;;;;7.31;77.01;100641.34;5093554;27;47266;-87
2021/12/06 17:40:47;;;;;;;;;1.33;1.33;;;;;7.32;75.46;100659.69;5089956;27;45456;-87
2021/12/06 17:43:13;;;;;;;;;7.00;4.00;;;;;7.33;77.04;100679.78;5092386;27;45360;-87
2021/12/06 17:45:39;;;;;;;;;2.67;2.00;;;;;7.35;78.31;100685.09;5085827;27;45468;-88
2021/12/06 17:48:05;;;;;;;;;2.67;1.00;;;;;7.30;77.97;100679.59;5083893;27;46552;-87
2021/12/06 17:50:30;;;;;;;;;1.00;1.00;;;;;7.21;79.40;100686.91;5086604;27;45453;-86
2021/12/06 17:52:55;;;;;;;;;3.00;3.00;;;;;7.20;79.24;100685.09;5091256;27;45481;-87
2021/12/06 17:55:21;;;;;;;;;3.00;2.00;;;;;7.19;79.80;100693.75;5091727;27;45495;-87
2021/12/06 17:57:53;;;;;;;;;2.00;2.00;;;;;7.12;80.99;100682.94;5093856;27;46270;-88
2021/12/06 18:00:20;;;;;;;;;1.67;1.67;;;;;7.10;81.46;100681.97;5091665;27;45461;-87
2021/12/06 18:02:47;;;;;;;;;1.00;1.00;;;;;7.13;81.22;100670.81;5092144;27;45615;-87
2021/12/06 18:05:16;;;;;;;;;3.00;1.67;;;;;7.18;81.78;100671.06;5076307;27;45865;-86
2021/12/06 18:07:43;;;;;;;;;3.67;3.00;;;;;7.20;81.58;100664.22;5080169;27;48161;-87
2021/12/06 18:10:10;;;;;;;;;1.00;1.00;;;;;7.14;81.24;100660.44;5087860;27;45957;-87
2021/12/06 18:12:35;;;;;;;;;3.00;2.00;;;;;7.18;81.34;100663.22;5088628;27;45749;-87
2021/12/06 18:15:03;;;;;;;;;3.00;2.00;;;;;7.22;81.02;100671.31;5093445;27;45674;-88
2021/12/06 18:17:28;;;;;;;;;2.00;2.00;;;;;7.20;81.77;100664.22;5092786;27;46566;-87
2021/12/06 18:19:53;;;;;;;;;2.00;2.00;;;;;7.17;81.13;100659.72;5087104;27;45566;-88
2021/12/06 18:22:19;;;;;;;;;2.67;2.67;;;;;7.18;81.35;100661.53;5090807;27;45478;-88
2021/12/06 18:24:44;;;;;;;;;1.00;1.00;;;;;7.18;80.86;100661.53;5090402;27;45755;-91
2021/12/06 18:27:11;;;;;;;;;5.00;3.00;;;;;7.18;81.24;100664.13;5093616;27;46422;-92
2021/12/06 18:29:37;;;;;;;;;4.33;2.33;;;;;7.17;80.68;100654.50;5089444;27;45913;-88
2021/12/06 18:32:04;;;;;;;;;5.00;3.67;;;;;7.19;81.06;100649.38;5089823;27;50085;-87
2021/12/06 18:34:29;;;;;;;;;3.00;3.00;;;;;7.15;80.85;100630.94;5091828;27;45580;-88
2021/12/06 18:36:54;;;;;;;;;2.00;2.00;;;;;7.20;81.21;100643.34;5092021;27;45532;-89
2021/12/06 18:39:27;;;;;;;;;2.67;2.67;;;;;7.21;81.85;100629.47;5088512;27;45402;-89
2021/12/06 18:41:52;;;;;;;;;2.00;2.00;;;;;7.22;82.02;100637.38;5089192;27;45269;-89
2021/12/06 18:47:29;;;;;;;;;3.00;2.00;;;;;7.31;81.75;100637.03;5026093;28;46755;-88
2021/12/06 18:49:56;;;;;;;;;6.33;3.00;;;;;7.31;81.69;100634.41;5028175;28;45394;-88
2021/12/06 18:52:22;;;;;;;;;5.00;3.00;;;;;7.33;81.39;100638.00;5030254;28;45818;-89
2021/12/06 18:54:48;;;;;;;;;6.33;3.00;;;;;7.36;81.52;100648.63;5026995;28;45753;-89
2021/12/06 18:57:16;;;;;;;;;6.33;6.33;;;;;7.35;81.05;100656.38;5028592;28;46338;-88
2021/12/06 18:59:41;;;;;;;;;5.33;2.33;;;;;7.37;81.98;100679.13;5029446;28;45412;-88
2021/12/06 19:02:07;;;;;;;;;4.00;4.00;;;;;7.41;82.29;100669.78;5032682;28;46318;-88
2021/12/06 19:04:33;;;;;;;;;5.00;4.33;;;;;7.46;81.83;100667.44;5017414;28;45565;-88
2021/12/06 19:07:00;;;;;;;;;3.00;2.67;;;;;7.47;81.82;100670.13;5033948;28;45527;-88
2021/12/06 19:09:26;;;;;;;;;3.00;3.00;;;;;7.48;81.25;100661.47;5031141;28;45560;-89
2021/12/06 19:11:52;;;;;;;;;4.33;3.00;;;;;7.48;79.89;100660.56;5032567;28;45419;-89
2021/12/06 19:14:18;;;;;;;;;4.00;2.67;;;;;7.47;80.11;100664.88;5049264;28;45540;-88
2021/12/06 19:16:43;;;;;;;;;2.00;2.00;;;;;7.47;79.23;100659.66;5031290;28;47478;-87
2021/12/06 19:19:09;;;;;;;;;3.00;3.00;;;;;7.51;79.77;100680.75;5086925;27;45434;-88
2021/12/06 19:21:34;;;;;;;;;4.67;3.00;;;;;7.47;78.73;100674.47;5080895;27;46244;-86
2021/12/06 19:24:00;;;;;;;;;4.00;3.33;;;;;7.29;79.65;100637.75;5302247;22;46212;-96
2021/12/06 19:31:28;;;;;;;;;3.67;2.67;;;;;7.35;80.02;100677.25;5058258;28;45324;-96
2021/12/06 19:33:55;;;;;;;;;2.00;2.00;;;;;7.32;80.34;100684.94;5066862;28;45434;-96
2021/12/06 19:36:22;;;;;;;;;2.00;2.00;;;;;7.18;80.51;100665.84;5063372;28;47270;-96
2021/12/06 19:38:47;;;;;;;;;4.33;2.33;;;;;7.14;80.70;100663.06;5054560;28;45437;-96